Time;durP1;ratioP1;P1;durP2;ratioP2;P2;SDS_P1;SDS_P2;PMS_P1;PMS_P2;Temp;Humidity;BMP_temperature;BMP_pressure;BME280_temperature;BME280_humidity;BME280_pressure;Samples;Min_cycle;Max_cycle;Signal;HPM_P1;HPM_P2
2022/06/21 00:24:22;;;;;;;4.45;3.35;;;;;;;;;;5069698;28;20059;-57
2022/06/21 00:26:48;;;;;;;4.47;2.88;;;;;;;;;;5070787;28;20089;-57
2022/06/21 00:29:14;;;;;;;5.68;3.50;;;;;;;;;;5067930;28;20499;-57
2022/06/21 00:31:45;;;;;;;4.78;3.63;;;;;;;;;;5069519;28;20078;-57
2022/06/21 00:34:19;;;;;;;3.92;3.45;;;;;;;;;;5067568;28;20078;-58
2022/06/21 00:36:45;;;;;;;5.78;3.45;;;;;;;;;;5072449;28;20105;-58
2022/06/21 00:39:17;;;;;;;5.10;3.90;;;;;;;;;;5063291;28;20511;-57
2022/06/21 00:42:07;;;;;;;4.25;3.45;;;;;;;;;;5073461;28;20063;-57
2022/06/21 00:44:41;;;;;;;5.20;3.67;;;;;;;;;;5064393;28;20036;-58
2022/06/21 00:47:27;;;;;;;5.18;3.08;;;;;;;;;;5062155;28;20048;-57
2022/06/21 00:50:12;;;;;;;5.05;3.20;;;;;;;;;;5081806;28;20035;-57
2022/06/21 00:52:42;;;;;;;3.92;3.08;;;;;;;;;;5066171;28;20086;-57
2022/06/21 00:55:52;;;;;;;6.40;3.65;;;;;;;;;;5063020;28;20530;-58
2022/06/21 00:58:26;;;;;;;4.00;2.85;;;;;;;;;;5063841;28;20052;-57
2022/06/21 01:01:05;;;;;;;4.47;3.60;;;;;;;;;;5063770;28;20491;-57
2022/06/21 01:03:35;;;;;;;5.13;3.58;;;;;;;;;;5070787;28;20163;-57
2022/06/21 01:06:02;;;;;;;;;;;;;;;;;;5069612;28;20491;-57
2022/06/21 01:08:35;;;;;;;4.60;3.10;;;;;;;;;;5067073;28;19912;-57
2022/06/21 01:11:07;;;;;;;3.67;3.33;;;;;;;;;;5065627;28;20033;-57
2022/06/21 01:13:36;;;;;;;4.07;3.42;;;;;;;;;;5068609;28;20024;-57
2022/06/21 01:16:02;;;;;;;5.18;3.05;;;;;;;;;;5072542;28;20033;-57
2022/06/21 01:18:28;;;;;;;4.70;3.47;;;;;;;;;;5071217;28;20036;-57
2022/06/21 01:20:56;;;;;;;4.72;3.35;;;;;;;;;;5068721;28;20504;-57
2022/06/21 01:23:43;;;;;;;6.57;4.32;;;;;;;;;;5069936;28;20032;-57
2022/06/21 01:26:32;;;;;;;6.18;3.47;;;;;;;;;;5070635;28;20059;-58
2022/06/21 01:28:58;;;;;;;;;;;;;;;;;;5080272;28;20035;-57
2022/06/21 01:31:24;;;;;;;3.67;3.00;;;;;;;;;;5074586;28;19912;-57
2022/06/21 01:33:50;;;;;;;3.75;3.20;;;;;;;;;;5064104;28;20545;-57
2022/06/21 01:36:18;;;;;;;6.40;3.33;;;;;;;;;;5069081;28;20036;-57
2022/06/21 01:38:53;;;;;;;6.38;3.30;;;;;;;;;;5072177;28;20485;-57
2022/06/21 01:41:23;;;;;;;6.65;3.53;;;;;;;;;;5072847;28;20111;-57
2022/06/21 01:43:53;;;;;;;4.95;3.35;;;;;;;;;;5071966;28;20263;-57
2022/06/21 01:46:23;;;;;;;5.15;3.13;;;;;;;;;;5072869;28;20073;-57
2022/06/21 01:48:51;;;;;;;4.35;3.25;;;;;;;;;;5067212;28;20463;-57
2022/06/21 01:51:25;;;;;;;3.72;3.33;;;;;;;;;;5063225;28;20036;-57
2022/06/21 01:53:52;;;;;;;4.95;2.92;;;;;;;;;;5061984;28;20017;-57
2022/06/21 01:56:22;;;;;;;5.55;3.20;;;;;;;;;;5069572;28;20032;-57
2022/06/21 01:59:20;;;;;;;4.15;3.53;;;;;;;;;;5066932;28;20028;-57
2022/06/21 02:01:51;;;;;;;4.30;3.20;;;;;;;;;;5068480;28;20056;-57
2022/06/21 02:04:22;;;;;;;3.47;2.70;;;;;;;;;;5071837;28;20422;-57
2022/06/21 02:06:50;;;;;;;4.00;3.10;;;;;;;;;;5071013;28;20572;-57
2022/06/21 02:09:30;;;;;;;4.28;3.60;;;;;;;;;;5073808;28;20097;-57
2022/06/21 02:12:06;;;;;;;5.13;3.17;;;;;;;;;;5067188;28;20522;-57
2022/06/21 02:14:36;;;;;;;4.95;3.25;;;;;;;;;;5065600;28;20032;-57
2022/06/21 02:17:02;;;;;;;4.40;3.20;;;;;;;;;;5073413;28;20109;-57
2022/06/21 02:19:33;;;;;;;4.43;3.05;;;;;;;;;;5069645;28;20056;-57
2022/06/21 02:21:58;;;;;;;4.50;3.42;;;;;;;;;;5075521;28;20029;-58
2022/06/21 02:24:28;;;;;;;3.15;2.85;;;;;;;;;;5071992;28;20165;-57
2022/06/21 02:26:53;;;;;;;7.78;3.33;;;;;;;;;;5066387;28;20103;-57
2022/06/21 02:29:19;;;;;;;5.95;3.50;;;;;;;;;;5067174;28;20108;-57
2022/06/21 02:31:46;;;;;;;4.63;3.67;;;;;;;;;;5067437;28;20059;-57
2022/06/21 02:34:17;;;;;;;5.40;3.45;;;;;;;;;;5073305;28;20028;-57
2022/06/21 02:37:04;;;;;;;4.10;3.47;;;;;;;;;;5075382;28;20031;-57
2022/06/21 02:39:32;;;;;;;4.15;3.30;;;;;;;;;;5068597;28;20103;-57
2022/06/21 02:42:04;;;;;;;5.45;4.03;;;;;;;;;;5075575;28;20039;-57
2022/06/21 02:44:43;;;;;;;5.07;3.60;;;;;;;;;;5067871;28;20028;-58
2022/06/21 02:47:22;;;;;;;4.53;3.28;;;;;;;;;;5067090;28;20579;-57
2022/06/21 02:49:52;;;;;;;4.45;3.60;;;;;;;;;;5065289;28;20052;-57
2022/06/21 02:52:37;;;;;;;4.38;3.38;;;;;;;;;;5068572;28;20032;-57
2022/06/21 02:55:25;;;;;;;4.43;3.22;;;;;;;;;;5063189;28;20116;-57
2022/06/21 02:58:09;;;;;;;5.30;3.27;;;;;;;;;;5055188;28;20040;-57
2022/06/21 03:00:34;;;;;;;4.22;3.42;;;;;;;;;;5069795;28;20024;-57
2022/06/21 03:03:01;;;;;;;5.40;3.83;;;;;;;;;;5069247;28;20032;-56
2022/06/21 03:05:28;;;;;;;5.93;3.25;;;;;;;;;;5071612;28;20415;-57
2022/06/21 03:07:58;;;;;;;6.60;3.58;;;;;;;;;;5073382;28;20024;-57
2022/06/21 03:10:29;;;;;;;4.85;3.40;;;;;;;;;;5066739;28;20542;-57
2022/06/21 03:13:07;;;;;;;6.30;3.38;;;;;;;;;;5067012;28;20032;-56
2022/06/21 03:15:34;;;;;;;7.27;4.27;;;;;;;;;;5069568;28;20032;-57
2022/06/21 03:18:10;;;;;;;5.70;3.42;;;;;;;;;;5071191;28;20020;-56
2022/06/21 03:20:36;;;;;;;5.90;3.58;;;;;;;;;;5065295;28;20024;-56
2022/06/21 03:23:04;;;;;;;4.85;3.75;;;;;;;;;;5075661;28;20412;-57
2022/06/21 03:25:48;;;;;;;5.63;3.63;;;;;;;;;;5070278;28;20162;-57
2022/06/21 03:28:31;;;;;;;5.07;3.55;;;;;;;;;;5069354;28;20044;-57
2022/06/21 03:31:12;;;;;;;6.00;4.45;;;;;;;;;;5068045;28;20035;-57
2022/06/21 03:33:42;;;;;;;7.20;3.47;;;;;;;;;;5066185;28;20047;-57
2022/06/21 03:36:13;;;;;;;5.78;3.50;;;;;;;;;;5072254;28;20143;-57
2022/06/21 03:38:42;;;;;;;4.30;3.67;;;;;;;;;;5065907;28;20024;-56
2022/06/21 03:43:58;;;;;;;4.47;3.47;;;;;;;;;;5071386;28;19916;-57
2022/06/21 03:46:37;;;;;;;;;;;;;;;;;;5065328;28;20024;-57
2022/06/21 03:49:10;;;;;;;8.15;4.30;;;;;;;;;;5062959;28;20279;-57
2022/06/21 03:51:42;;;;;;;6.28;4.22;;;;;;;;;;5062342;28;20074;-56
2022/06/21 03:54:12;;;;;;;6.15;3.63;;;;;;;;;;5059746;28;20040;-56
2022/06/21 03:56:52;;;;;;;4.60;3.47;;;;;;;;;;5066911;28;20036;-56
2022/06/21 03:59:37;;;;;;;5.65;3.83;;;;;;;;;;5069962;28;20487;-57
2022/06/21 04:02:20;;;;;;;4.57;3.40;;;;;;;;;;5066391;28;20111;-56
2022/06/21 04:04:56;;;;;;;6.70;4.03;;;;;;;;;;5070608;28;20021;-56
2022/06/21 04:07:31;;;;;;;8.20;4.63;;;;;;;;;;5070749;28;20024;-57
2022/06/21 04:10:09;;;;;;;6.70;4.35;;;;;;;;;;5068334;28;20032;-56
2022/06/21 04:12:54;;;;;;;6.13;4.38;;;;;;;;;;5068513;28;20139;-57
2022/06/21 04:15:42;;;;;;;9.32;4.65;;;;;;;;;;5066206;28;20056;-57
2022/06/21 04:18:28;;;;;;;5.50;3.90;;;;;;;;;;5073197;28;20032;-56
2022/06/21 04:20:53;;;;;;;7.82;3.90;;;;;;;;;;5069329;28;20028;-56
2022/06/21 04:23:22;;;;;;;7.05;4.20;;;;;;;;;;5068765;28;20068;-56
2022/06/21 04:25:59;;;;;;;5.43;4.03;;;;;;;;;;5071060;28;20020;-56
2022/06/21 04:28:37;;;;;;;6.28;3.40;;;;;;;;;;5072059;28;20051;-56
2022/06/21 04:31:15;;;;;;;5.03;3.22;;;;;;;;;;5061145;28;20037;-57
2022/06/21 04:33:48;;;;;;;5.70;3.60;;;;;;;;;;5069006;28;20035;-57
2022/06/21 04:36:19;;;;;;;6.10;2.90;;;;;;;;;;5066973;28;20465;-58
2022/06/21 04:39:33;;;;;;;6.70;3.60;;;;;;;;;;5075905;28;20032;-58
2022/06/21 04:42:13;;;;;;;9.60;3.65;;;;;;;;;;5051404;28;20112;-57
2022/06/21 04:44:55;;;;;;;6.00;3.33;;;;;;;;;;5061559;28;20028;-58
2022/06/21 04:47:34;;;;;;;5.68;3.80;;;;;;;;;;5064322;28;20078;-57
2022/06/21 04:50:27;;;;;;;5.57;2.90;;;;;;;;;;5062836;28;20036;-57
2022/06/21 04:53:12;;;;;;;5.53;3.40;;;;;;;;;;5058581;28;20139;-57
2022/06/21 04:55:42;;;;;;;6.38;3.10;;;;;;;;;;5065900;28;20024;-57
2022/06/21 04:58:10;;;;;;;7.30;3.17;;;;;;;;;;5070674;28;20108;-57
2022/06/21 05:00:36;;;;;;;6.40;3.22;;;;;;;;;;5069359;28;20062;-57
2022/06/21 05:03:09;;;;;;;4.95;3.08;;;;;;;;;;5070066;28;20029;-57
2022/06/21 05:05:37;;;;;;;6.68;2.95;;;;;;;;;;5066628;28;20241;-57
2022/06/21 05:08:13;;;;;;;3.28;2.80;;;;;;;;;;5067468;28;20090;-57
2022/06/21 05:10:44;;;;;;;5.38;2.95;;;;;;;;;;5064358;28;20024;-57
2022/06/21 05:13:21;;;;;;;6.20;2.92;;;;;;;;;;5074843;28;20029;-58
2022/06/21 05:15:47;;;;;;;4.45;2.65;;;;;;;;;;5069089;28;20573;-60
2022/06/21 05:18:19;;;;;;;6.13;2.80;;;;;;;;;;5066228;28;20028;-59
2022/06/21 05:21:00;;;;;;;4.82;2.50;;;;;;;;;;5065161;28;20400;-61
2022/06/21 05:23:27;;;;;;;5.82;2.60;;;;;;;;;;5063898;28;20029;-57
2022/06/21 05:25:53;;;;;;;4.82;2.80;;;;;;;;;;5065809;28;20021;-58
2022/06/21 05:28:25;;;;;;;2.95;2.45;;;;;;;;;;5068535;28;20408;-59
2022/06/21 05:31:09;;;;;;;5.47;2.72;;;;;;;;;;5064460;28;20016;-59
2022/06/21 05:33:51;;;;;;;6.78;2.92;;;;;;;;;;5070134;28;20029;-58
2022/06/21 05:36:25;;;;;;;6.57;2.90;;;;;;;;;;5068013;28;20564;-56
2022/06/21 05:38:55;;;;;;;5.90;2.92;;;;;;;;;;5069496;28;20028;-56
2022/06/21 05:41:30;;;;;;;;;;;;;;;;;;5068045;28;20060;-57
2022/06/21 05:44:32;;;;;;;3.83;2.80;;;;;;;;;;5057236;28;19941;-57
2022/06/21 05:47:21;;;;;;;5.22;2.45;;;;;;;;;;5066681;28;20032;-56
2022/06/21 05:49:47;;;;;;;4.78;2.63;;;;;;;;;;5059513;28;20072;-57
2022/06/21 05:52:18;;;;;;;5.60;2.70;;;;;;;;;;5062704;28;20040;-59
2022/06/21 05:54:51;;;;;;;4.70;2.60;;;;;;;;;;5062930;28;20036;-57
2022/06/21 05:57:21;;;;;;;4.45;2.45;;;;;;;;;;5060916;28;20530;-58
2022/06/21 05:59:46;;;;;;;6.57;2.97;;;;;;;;;;5060012;28;20508;-58
2022/06/21 06:02:41;;;;;;;4.97;2.65;;;;;;;;;;5068628;28;20029;-59
2022/06/21 06:05:22;;;;;;;10.95;5.15;;;;;;;;;;5066085;28;20033;-58
2022/06/21 06:08:00;;;;;;;7.22;3.38;;;;;;;;;;5065185;28;20039;-59
2022/06/21 06:10:26;;;;;;;9.82;3.45;;;;;;;;;;5068388;28;20093;-59
2022/06/21 06:12:58;;;;;;;6.05;3.20;;;;;;;;;;5063669;28;20503;-59
2022/06/21 06:15:28;;;;;;;9.23;4.68;;;;;;;;;;5066730;28;20157;-58
2022/06/21 06:18:03;;;;;;;4.80;3.22;;;;;;;;;;5071857;28;20082;-59
2022/06/21 06:20:36;;;;;;;6.03;2.80;;;;;;;;;;5073002;28;20487;-59
2022/06/21 06:23:25;;;;;;;6.18;3.08;;;;;;;;;;5072476;28;20043;-58
2022/06/21 06:26:01;;;;;;;4.30;2.53;;;;;;;;;;5065927;28;20026;-58
2022/06/21 06:28:44;;;;;;;3.38;2.47;;;;;;;;;;5064810;28;20029;-57
2022/06/21 06:31:12;;;;;;;3.83;2.78;;;;;;;;;;5058271;28;20029;-58
2022/06/21 06:33:41;;;;;;;4.38;2.95;;;;;;;;;;5069513;28;20498;-59
2022/06/21 06:36:14;;;;;;;6.38;3.00;;;;;;;;;;5069774;28;20032;-59
2022/06/21 06:38:40;;;;;;;9.18;2.83;;;;;;;;;;5070916;28;20029;-60
2022/06/21 06:41:29;;;;;;;6.32;2.80;;;;;;;;;;5062438;28;20032;-59
2022/06/21 06:44:00;;;;;;;3.70;2.80;;;;;;;;;;5062092;28;20029;-59
2022/06/21 06:46:34;;;;;;;4.70;3.17;;;;;;;;;;5059814;28;20056;-59
2022/06/21 06:49:18;;;;;;;7.85;4.85;;;;;;;;;;5057539;28;20066;-59
2022/06/21 06:51:54;;;;;;;9.57;5.00;;;;;;;;;;5064817;28;20077;-60
2022/06/21 06:54:33;;;;;;;7.60;3.97;;;;;;;;;;5060322;28;20063;-60
2022/06/21 06:57:15;;;;;;;10.35;3.08;;;;;;;;;;5066782;28;20103;-60
2022/06/21 06:59:43;;;;;;;7.75;3.33;;;;;;;;;;5064086;28;20045;-59
2022/06/21 07:02:26;;;;;;;5.97;3.35;;;;;;;;;;5058058;28;20032;-60
2022/06/21 07:05:02;;;;;;;6.53;3.00;;;;;;;;;;5053854;28;20075;-59
2022/06/21 07:07:37;;;;;;;8.45;3.33;;;;;;;;;;5051644;28;20025;-60
2022/06/21 07:10:09;;;;;;;6.72;4.65;;;;;;;;;;5051397;28;20052;-59
2022/06/21 07:12:35;;;;;;;6.82;3.72;;;;;;;;;;5051963;28;20506;-58
2022/06/21 07:15:01;;;;;;;9.45;3.80;;;;;;;;;;5050693;28;20032;-58
2022/06/21 07:17:29;;;;;;;7.38;3.00;;;;;;;;;;5052303;28;20033;-58
2022/06/21 07:19:55;;;;;;;6.93;3.17;;;;;;;;;;5056463;28;20051;-59
2022/06/21 07:22:26;;;;;;;5.50;3.13;;;;;;;;;;5050771;28;20052;-57
2022/06/21 07:24:57;;;;;;;7.13;3.42;;;;;;;;;;5062121;28;20024;-58
2022/06/21 07:27:26;;;;;;;4.53;3.08;;;;;;;;;;5070317;28;20032;-58
2022/06/21 07:29:58;;;;;;;4.57;3.30;;;;;;;;;;5067840;28;20480;-59
2022/06/21 07:32:41;;;;;;;4.22;3.22;;;;;;;;;;5064392;28;20507;-59
2022/06/21 07:35:13;;;;;;;8.50;5.13;;;;;;;;;;5062547;28;20035;-58
2022/06/21 07:37:50;;;;;;;4.18;3.22;;;;;;;;;;5064629;28;20446;-58
2022/06/21 07:40:32;;;;;;;5.13;3.60;;;;;;;;;;5069005;28;20369;-58
2022/06/21 07:43:04;;;;;;;12.60;3.95;;;;;;;;;;5056094;28;20037;-59
2022/06/21 07:45:51;;;;;;;5.07;3.00;;;;;;;;;;5057268;28;20056;-59
2022/06/21 07:48:19;;;;;;;4.65;3.20;;;;;;;;;;5059830;28;20051;-59
2022/06/21 07:50:50;;;;;;;5.50;3.45;;;;;;;;;;5055091;28;20043;-59
2022/06/21 07:53:33;;;;;;;5.57;3.08;;;;;;;;;;5051783;28;20036;-58
2022/06/21 07:56:16;;;;;;;4.70;3.15;;;;;;;;;;5053191;28;20029;-59
2022/06/21 07:58:57;;;;;;;8.32;3.60;;;;;;;;;;5054005;28;20119;-60
2022/06/21 08:07:24;;;;;;;4.65;3.03;;;;;;;;;;5051618;28;20438;-59
2022/06/21 08:09:56;;;;;;;5.78;3.80;;;;;;;;;;5055932;28;20079;-58
2022/06/21 08:12:22;;;;;;;6.80;3.10;;;;;;;;;;5050740;28;20029;-58
2022/06/21 08:14:48;;;;;;;4.00;3.25;;;;;;;;;;5052726;28;20495;-58
2022/06/21 08:17:13;;;;;;;6.55;3.55;;;;;;;;;;5050750;28;20162;-58
2022/06/21 08:20:16;;;;;;;6.57;3.47;;;;;;;;;;5056541;28;20078;-59
2022/06/21 08:22:57;;;;;;;6.00;3.50;;;;;;;;;;5050591;28;20095;-58
2022/06/21 08:25:37;;;;;;;5.95;3.25;;;;;;;;;;5051226;28;20412;-58
2022/06/21 08:28:11;;;;;;;7.72;3.70;;;;;;;;;;5064593;28;20031;-58
2022/06/21 08:30:53;;;;;;;8.57;3.40;;;;;;;;;;5068123;28;20082;-59
2022/06/21 08:33:46;;;;;;;4.20;3.20;;;;;;;;;;5063257;28;20027;-59
2022/06/21 08:36:36;;;;;;;6.03;3.83;;;;;;;;;;5065666;28;20038;-59
2022/06/21 08:39:09;;;;;;;8.88;3.83;;;;;;;;;;5054717;28;20052;-58
2022/06/21 08:42:16;;;;;;;5.40;3.42;;;;;;;;;;5056998;28;20447;-58
2022/06/21 08:48:12;;;;;;;5.85;3.90;;;;;;;;;;5054732;28;20043;-58
2022/06/21 08:51:00;;;;;;;6.38;3.88;;;;;;;;;;5061544;28;20065;-59
2022/06/21 08:53:58;;;;;;;8.90;4.68;;;;;;;;;;5051140;28;20042;-59
2022/06/21 08:56:27;;;;;;;7.78;4.20;;;;;;;;;;5059911;28;20029;-59
2022/06/21 08:59:06;;;;;;;6.13;4.07;;;;;;;;;;5053063;28;20500;-59
2022/06/21 09:01:41;;;;;;;6.95;4.00;;;;;;;;;;5048872;28;20403;-60
2022/06/21 09:04:13;;;;;;;5.60;4.03;;;;;;;;;;5050674;28;20122;-60
2022/06/21 09:06:41;;;;;;;7.88;4.10;;;;;;;;;;5048819;28;20505;-60
2022/06/21 09:09:15;;;;;;;6.85;4.97;;;;;;;;;;5055050;28;20032;-60
2022/06/21 09:12:02;;;;;;;8.18;4.40;;;;;;;;;;5054279;28;20477;-60
2022/06/21 09:14:57;;;;;;;5.22;3.55;;;;;;;;;;5058955;28;20052;-60
2022/06/21 09:17:49;;;;;;;5.57;3.97;;;;;;;;;;5059853;28;20051;-60
2022/06/21 09:20:31;;;;;;;10.05;5.03;;;;;;;;;;5059515;28;20127;-61
2022/06/21 09:23:15;;;;;;;8.10;5.18;;;;;;;;;;5068604;28;20146;-60
2022/06/21 09:26:04;;;;;;;9.15;5.10;;;;;;;;;;5060910;28;20021;-60
2022/06/21 09:29:11;;;;;;;6.53;4.20;;;;;;;;;;5061311;28;20163;-60
2022/06/21 09:31:51;;;;;;;7.95;4.30;;;;;;;;;;5047845;28;20427;-60
2022/06/21 09:34:31;;;;;;;6.93;4.10;;;;;;;;;;5056021;28;20033;-60
2022/06/21 09:37:22;;;;;;;6.32;3.63;;;;;;;;;;5057274;28;20020;-60
2022/06/21 09:39:59;;;;;;;5.93;3.97;;;;;;;;;;5058999;28;20562;-60
2022/06/21 09:42:34;;;;;;;5.20;3.75;;;;;;;;;;5057395;28;20382;-57
2022/06/21 09:45:35;;;;;;;7.38;4.22;;;;;;;;;;5056775;28;20598;-58
2022/06/21 09:48:17;;;;;;;7.13;4.30;;;;;;;;;;5055036;28;20589;-58
2022/06/21 09:50:55;;;;;;;5.60;3.97;;;;;;;;;;5047780;28;20036;-57
2022/06/21 09:53:45;;;;;;;6.20;4.25;;;;;;;;;;5058448;28;20090;-60
2022/06/21 09:56:33;;;;;;;5.75;3.70;;;;;;;;;;5072935;28;20029;-58
2022/06/21 09:59:23;;;;;;;6.18;4.60;;;;;;;;;;5067376;28;20464;-60
2022/06/21 10:01:58;;;;;;;8.15;6.22;;;;;;;;;;5069487;28;20067;-58
2022/06/21 10:04:37;;;;;;;6.88;5.32;;;;;;;;;;5058988;28;20401;-59
2022/06/21 10:07:17;;;;;;;;;;;;;;;;;;5058697;28;20033;-61
2022/06/21 10:10:01;;;;;;;7.32;4.32;;;;;;;;;;5056880;28;20303;-61
2022/06/21 10:12:29;;;;;;;5.72;4.70;;;;;;;;;;5055662;28;20415;-60
2022/06/21 10:15:15;;;;;;;4.82;4.32;;;;;;;;;;5055262;28;20163;-60
2022/06/21 10:17:45;;;;;;;6.47;4.20;;;;;;;;;;5039709;28;20052;-59
2022/06/21 10:20:35;;;;;;;9.15;5.18;;;;;;;;;;5061105;28;20151;-60
2022/06/21 10:23:09;;;;;;;8.55;5.38;;;;;;;;;;5052475;28;20028;-60
2022/06/21 10:25:52;;;;;;;7.25;4.70;;;;;;;;;;5054279;28;20032;-60
2022/06/21 10:28:38;;;;;;;8.18;4.75;;;;;;;;;;5059196;28;20028;-60
2022/06/21 10:31:16;;;;;;;13.48;5.38;;;;;;;;;;5058457;28;20044;-61
2022/06/21 10:33:52;;;;;;;16.77;6.80;;;;;;;;;;5062705;28;20028;-60
2022/06/21 10:36:54;;;;;;;10.13;6.20;;;;;;;;;;5059792;28;20028;-60
2022/06/21 10:39:26;;;;;;;8.07;5.50;;;;;;;;;;5055594;28;20029;-60
2022/06/21 10:45:21;;;;;;;9.32;5.95;;;;;;;;;;5034699;28;20083;-60
2022/06/21 10:48:08;;;;;;;9.75;5.18;;;;;;;;;;5053412;28;20085;-60
2022/06/21 10:51:08;;;;;;;9.10;5.83;;;;;;;;;;5056625;28;20052;-61
2022/06/21 10:53:49;;;;;;;8.38;5.53;;;;;;;;;;5059135;28;20274;-60
2022/06/21 11:02:55;;;;;;;11.90;6.90;;;;;;;;;;5056452;28;20082;-61
2022/06/21 11:05:52;;;;;;;9.07;6.68;;;;;;;;;;5065383;28;20078;-60
2022/06/21 11:08:45;;;;;;;9.45;7.07;;;;;;;;;;5049760;28;20060;-60
2022/06/21 11:11:17;;;;;;;11.52;6.90;;;;;;;;;;5057448;28;20044;-60
2022/06/21 11:14:00;;;;;;;8.65;6.78;;;;;;;;;;5057415;28;20052;-60
2022/06/21 11:16:38;;;;;;;9.63;6.97;;;;;;;;;;5065792;28;20025;-60
2022/06/21 11:19:33;;;;;;;10.55;7.32;;;;;;;;;;5061656;28;20032;-61
2022/06/21 11:22:11;;;;;;;8.85;6.68;;;;;;;;;;5068097;28;20664;-61
2022/06/21 11:24:36;;;;;;;12.95;6.80;;;;;;;;;;5060256;28;20483;-60
2022/06/21 11:27:16;;;;;;;9.85;6.78;;;;;;;;;;5076940;28;20035;-61
2022/06/21 11:29:57;;;;;;;9.77;7.15;;;;;;;;;;5073048;28;20159;-61
2022/06/21 11:32:33;;;;;;;10.90;7.43;;;;;;;;;;5067912;28;20082;-61
2022/06/21 11:35:08;;;;;;;16.75;8.18;;;;;;;;;;5056728;28;20349;-60
2022/06/21 11:38:24;;;;;;;12.55;7.55;;;;;;;;;;5063706;28;20024;-61
2022/06/21 11:41:02;;;;;;;9.32;6.47;;;;;;;;;;5055275;28;20051;-61
2022/06/21 11:43:48;;;;;;;8.52;6.88;;;;;;;;;;5069063;28;20020;-61
2022/06/21 11:46:50;;;;;;;10.15;7.75;;;;;;;;;;5063846;28;20036;-61
2022/06/21 11:49:48;;;;;;;10.32;7.18;;;;;;;;;;5055730;28;20040;-61
2022/06/21 11:52:32;;;;;;;13.27;7.28;;;;;;;;;;5041029;28;20352;-59
2022/06/21 11:55:18;;;;;;;13.45;8.13;;;;;;;;;;5066013;28;20037;-60
2022/06/21 11:58:18;;;;;;;12.18;7.45;;;;;;;;;;5067170;28;20465;-61
2022/06/21 12:00:52;;;;;;;10.50;7.65;;;;;;;;;;5049316;28;20041;-63
2022/06/21 12:03:31;;;;;;;9.90;8.18;;;;;;;;;;5070082;28;20024;-61
2022/06/21 12:06:05;;;;;;;11.48;7.78;;;;;;;;;;5068146;28;20024;-60
2022/06/21 12:08:54;;;;;;;11.50;8.13;;;;;;;;;;5059300;28;20078;-60
2022/06/21 12:11:38;;;;;;;13.75;8.68;;;;;;;;;;5066716;28;20288;-59
2022/06/21 12:14:09;;;;;;;11.10;8.05;;;;;;;;;;5069954;28;20036;-60
2022/06/21 12:17:10;;;;;;;10.68;8.75;;;;;;;;;;5070601;28;20430;-59
2022/06/21 12:19:39;;;;;;;14.43;8.50;;;;;;;;;;5069360;28;20028;-60
2022/06/21 12:22:30;;;;;;;15.82;8.00;;;;;;;;;;5061652;28;20379;-60
2022/06/21 12:24:56;;;;;;;12.18;8.75;;;;;;;;;;5064898;28;20308;-59
2022/06/21 12:27:22;;;;;;;11.52;8.30;;;;;;;;;;5059240;28;20067;-59
2022/06/21 12:29:48;;;;;;;10.85;7.97;;;;;;;;;;5074833;28;20533;-59
2022/06/21 12:32:25;;;;;;;10.07;8.15;;;;;;;;;;5071095;28;20052;-60
2022/06/21 12:35:43;;;;;;;9.60;8.15;;;;;;;;;;5067385;28;20035;-60
2022/06/21 12:38:12;;;;;;;10.05;8.55;;;;;;;;;;5044361;28;20036;-59
2022/06/21 12:40:47;;;;;;;11.50;8.45;;;;;;;;;;5060123;28;20069;-60
2022/06/21 12:43:50;;;;;;;12.07;8.77;;;;;;;;;;5061512;28;20104;-59
2022/06/21 12:46:18;;;;;;;13.38;8.13;;;;;;;;;;5058039;28;20058;-59
2022/06/21 12:49:14;;;;;;;11.10;7.85;;;;;;;;;;5061926;28;20025;-60
2022/06/21 12:52:24;;;;;;;14.00;8.35;;;;;;;;;;5064367;28;20024;-60
2022/06/21 12:54:49;;;;;;;9.38;7.97;;;;;;;;;;5038735;28;20999;-60
2022/06/21 12:57:27;;;;;;;10.43;7.63;;;;;;;;;;5041431;28;20033;-60
2022/06/21 13:00:11;;;;;;;11.27;8.40;;;;;;;;;;5060485;28;20094;-61
2022/06/21 13:02:55;;;;;;;17.73;8.13;;;;;;;;;;5067510;28;20033;-60
2022/06/21 13:05:51;;;;;;;9.88;7.65;;;;;;;;;;5064714;28;20796;-60
2022/06/21 13:08:22;;;;;;;13.90;7.82;;;;;;;;;;5062846;28;20032;-60
2022/06/21 13:11:00;;;;;;;9.60;7.40;;;;;;;;;;5070435;28;20462;-60
2022/06/21 13:13:34;;;;;;;10.25;7.68;;;;;;;;;;5074926;28;20039;-59
2022/06/21 13:16:02;;;;;;;9.80;7.57;;;;;;;;;;5064190;28;20436;-61
2022/06/21 13:18:52;;;;;;;11.18;7.75;;;;;;;;;;5058025;28;20166;-59
2022/06/21 13:21:45;;;;;;;13.00;8.00;;;;;;;;;;5055436;28;20021;-60
2022/06/21 13:24:10;;;;;;;10.68;7.80;;;;;;;;;;5060764;28;20028;-60
2022/06/21 13:26:53;;;;;;;9.93;8.18;;;;;;;;;;5063746;28;20229;-60
2022/06/21 13:29:39;;;;;;;10.25;7.85;;;;;;;;;;5061105;28;20060;-61
2022/06/21 13:32:14;;;;;;;11.52;7.43;;;;;;;;;;5057741;28;20036;-60
2022/06/21 13:34:45;;;;;;;13.95;8.18;;;;;;;;;;5062382;28;20492;-60
2022/06/21 13:37:26;;;;;;;10.88;7.57;;;;;;;;;;5060714;28;20515;-60
2022/06/21 13:40:16;;;;;;;10.38;8.07;;;;;;;;;;5061625;28;20040;-60
2022/06/21 13:42:51;;;;;;;9.25;7.70;;;;;;;;;;5057632;28;20115;-60
2022/06/21 13:45:49;;;;;;;12.50;8.07;;;;;;;;;;5057063;28;20064;-60
2022/06/21 13:48:32;;;;;;;12.38;7.68;;;;;;;;;;5063387;28;20033;-60
2022/06/21 13:51:05;;;;;;;13.65;7.70;;;;;;;;;;5057204;28;20063;-60
2022/06/21 13:53:41;;;;;;;13.57;7.57;;;;;;;;;;5059211;28;20399;-61
2022/06/21 13:56:22;;;;;;;14.98;7.60;;;;;;;;;;5055551;28;20049;-60
2022/06/21 13:59:13;;;;;;;10.32;7.63;;;;;;;;;;5054601;28;20048;-61
2022/06/21 14:01:57;;;;;;;9.63;7.30;;;;;;;;;;5036122;28;20542;-61
2022/06/21 14:04:52;;;;;;;13.13;7.38;;;;;;;;;;5064536;28;20139;-60
2022/06/21 14:07:38;;;;;;;11.32;8.05;;;;;;;;;;5056402;28;20079;-61
2022/06/21 14:10:25;;;;;;;9.57;7.60;;;;;;;;;;5064206;28;20028;-60
2022/06/21 14:12:53;;;;;;;11.98;8.35;;;;;;;;;;5059030;28;20466;-60
2022/06/21 14:15:40;;;;;;;12.95;7.82;;;;;;;;;;5068199;28;20104;-60
2022/06/21 14:18:05;;;;;;;11.00;7.75;;;;;;;;;;5070428;28;20529;-60
2022/06/21 14:20:58;;;;;;;10.45;7.57;;;;;;;;;;5069058;28;20131;-61
2022/06/21 14:23:33;;;;;;;15.50;8.43;;;;;;;;;;5070779;28;20017;-60
2022/06/21 14:26:24;;;;;;;14.30;8.80;;;;;;;;;;5066642;28;20037;-60
2022/06/21 14:29:26;;;;;;;10.63;7.88;;;;;;;;;;5066738;28;20526;-61
2022/06/21 14:32:09;;;;;;;15.07;8.02;;;;;;;;;;5064600;28;20029;-60
2022/06/21 14:34:41;;;;;;;11.55;8.13;;;;;;;;;;5065637;28;20021;-60
2022/06/21 14:37:34;;;;;;;13.20;8.88;;;;;;;;;;5066777;28;20117;-61
2022/06/21 14:40:09;;;;;;;9.15;7.70;;;;;;;;;;5064617;28;20032;-61
2022/06/21 14:42:51;;;;;;;12.98;7.55;;;;;;;;;;5067514;28;20021;-60
2022/06/21 14:45:37;;;;;;;12.00;7.95;;;;;;;;;;5067324;28;20028;-60
2022/06/21 14:48:28;;;;;;;13.82;7.65;;;;;;;;;;5072712;28;20071;-61
2022/06/21 14:51:20;;;;;;;13.30;8.38;;;;;;;;;;5066767;28;20029;-60
2022/06/21 14:54:05;;;;;;;9.32;7.28;;;;;;;;;;5066027;28;20036;-57
2022/06/21 14:56:49;;;;;;;14.15;8.27;;;;;;;;;;5062212;28;20377;-58
2022/06/21 14:59:17;;;;;;;10.40;7.93;;;;;;;;;;5069909;28;20112;-58
2022/06/21 15:01:47;;;;;;;13.63;7.68;;;;;;;;;;5053373;28;20021;-58
2022/06/21 15:05:15;;;;;;;12.73;7.70;;;;;;;;;;5059183;28;20044;-58
2022/06/21 15:07:46;;;;;;;9.82;7.43;;;;;;;;;;5040207;28;20045;-58
2022/06/21 15:10:24;;;;;;;10.40;7.95;;;;;;;;;;5044797;28;20428;-58
2022/06/21 15:13:09;;;;;;;11.65;7.70;;;;;;;;;;5060190;28;20048;-58
2022/06/21 15:15:37;;;;;;;9.73;7.30;;;;;;;;;;5058111;28;20498;-58
2022/06/21 15:18:06;;;;;;;11.95;7.30;;;;;;;;;;5063317;28;20074;-60
2022/06/21 15:20:42;;;;;;;12.63;7.43;;;;;;;;;;5063468;28;20036;-60
2022/06/21 15:23:07;;;;;;;15.82;7.80;;;;;;;;;;5066617;28;20063;-60
2022/06/21 15:25:48;;;;;;;13.48;7.28;;;;;;;;;;5070285;28;20098;-59
2022/06/21 15:28:17;;;;;;;12.18;8.10;;;;;;;;;;5068829;28;20111;-58
2022/06/21 15:30:57;;;;;;;10.13;7.55;;;;;;;;;;5057712;28;20025;-60
2022/06/21 15:33:29;;;;;;;14.27;8.00;;;;;;;;;;5059054;28;20029;-60
2022/06/21 15:35:57;;;;;;;13.48;7.47;;;;;;;;;;5055062;28;20028;-60
2022/06/21 15:38:30;;;;;;;13.35;7.97;;;;;;;;;;5059460;28;20020;-60
2022/06/21 15:40:59;;;;;;;10.07;7.15;;;;;;;;;;5054796;28;20090;-60
2022/06/21 15:43:37;;;;;;;10.20;7.53;;;;;;;;;;5060422;28;20032;-61
2022/06/21 15:46:12;;;;;;;8.98;7.88;;;;;;;;;;5060678;28;20462;-60
2022/06/21 15:51:53;;;;;;;8.43;7.28;;;;;;;;;;5062203;28;20040;-60
2022/06/21 15:54:18;;;;;;;10.10;7.32;;;;;;;;;;5070668;28;20522;-61
2022/06/21 15:57:18;;;;;;;8.98;7.50;;;;;;;;;;5068691;28;20028;-60
2022/06/21 16:00:05;;;;;;;13.40;8.05;;;;;;;;;;5068304;28;20040;-61
2022/06/21 16:02:43;;;;;;;12.65;9.40;;;;;;;;;;5065976;28;20032;-60
2022/06/21 16:05:32;;;;;;;;;;;;;;;;;;5067053;28;20024;-61
2022/06/21 16:08:15;;;;;;;16.85;10.48;;;;;;;;;;5068143;28;19912;-61
2022/06/21 16:10:43;;;;;;;11.13;8.88;;;;;;;;;;5074347;28;20039;-60
2022/06/21 16:13:31;;;;;;;14.68;9.27;;;;;;;;;;5070918;28;20055;-60
2022/06/21 16:15:58;;;;;;;12.20;8.57;;;;;;;;;;5072685;28;20492;-59
2022/06/21 16:18:31;;;;;;;19.40;9.20;;;;;;;;;;5071854;28;20031;-60
2022/06/21 16:20:57;;;;;;;11.02;8.98;;;;;;;;;;5070487;28;20169;-60
2022/06/21 16:23:29;;;;;;;11.75;8.85;;;;;;;;;;5065612;28;20116;-60
2022/06/21 16:25:56;;;;;;;13.80;9.35;;;;;;;;;;5069187;28;20031;-60
2022/06/21 16:28:32;;;;;;;11.07;9.03;;;;;;;;;;5064798;28;20032;-60
2022/06/21 16:34:26;;;;;;;14.18;9.48;;;;;;;;;;5056609;28;20115;-60
2022/06/21 16:36:54;;;;;;;15.57;8.63;;;;;;;;;;5060892;28;20036;-60